Sierra Nevada Aquatic Research Lab (SNARL) Reserve, California Weather observations

Data are for 10 minute period ending at time listed.
 Day   Time   Solar   Ave.   Ave.  Ave.  Vector  Max.   Baro.   Total    
  of    of     Rad.   Air    Rel.  Wind   Wind   Wind  Press.  Precip.   
Year   Day            Temp.  Hum.  Speed  Dir.   Gust                    
2017   (PST)  Kw/m2    F      %     mph   deg.    mph    mb.     in.     
-------------------------------------------------------------------------
 118   19:30   0.00   32.9    32    2.7   303     5.9   784.9    0.00 
 118   19:40   0.00   31.5    34    3.2   267     4.9   785.1    0.00 
 118   19:50   0.00   28.9    37    3.1   259     4.7   785.3    0.00 
 118   20:00   0.00   28.0    39    1.5   270     3.6   785.5    0.00 
 118   20:10   0.00   27.4    41    2.6   210     4.5   785.6    0.00 
 118   20:20   0.00   26.9    42    4.1   210     5.7   785.7    0.00 
 118   20:30   0.00   26.0    42    4.6   227     5.7   785.9    0.00 
 118   20:40   0.00   26.5    41    3.5   264     5.8   786.0    0.00 
 118   20:50   0.00   27.8    39    3.5   251     7.1   786.2    0.00 
 118   21:00   0.00   27.1    40    5.3   256     8.9   786.1    0.00 
 118   21:10   0.00   26.6    41    7.8   243     9.6   786.1    0.00 
 118   21:20   0.00   27.7    40    5.9   246    10.8   786.2    0.00 
 118   21:30   0.00   28.5    39    4.8   261     7.6   786.2    0.00 
 118   21:40   0.00   27.4    41    4.2   260     6.9   786.3    0.00 
 118   21:50   0.00   27.5    40    5.4   237     8.3   786.3    0.00 
 118   22:00   0.00   27.2    42    7.7   214    10.6   786.3    0.00 
 118   22:10   0.00   27.3    42    8.6   221    13.2   786.3    0.00 
 118   22:20   0.00   29.6    40    7.1   262    16.0   786.5    0.00 
 118   22:30   0.00   30.5    39    6.3   265    12.7   786.4    0.00 
 118   22:40   0.00   30.4    40    5.7   287     9.3   786.5    0.00 
 118   22:50   0.00   29.7    41    4.3   281     6.6   786.6    0.00 
 118   23:00   0.00   28.8    43    2.5   262     3.9   786.7    0.00 
 118   23:10   0.00   26.8    46    4.7   258     6.8   786.8    0.00 
 118   23:20   0.00   25.0    49    6.4   239     9.0   786.9    0.00 
 118   23:30   0.00   24.7    50    5.9   237     8.1   786.8    0.00 
 118   23:40   0.00   25.1    51    8.7   229    11.0   786.8    0.00 
 118   23:50   0.00   26.4    50    5.4   235     8.4   786.9    0.00 
 119    0:00   0.00   26.7    50    3.0   286     5.9   787.0    0.00 
 119    0:10   0.00   26.1    50    3.0   255     4.8   787.0    0.00 
 119    0:20   0.00   25.0    51    5.0   252     7.2   786.9    0.00 
 119    0:30   0.00   24.4    54    6.4   273     9.1   786.7    0.00 
 119    0:40   0.00   25.4    52    6.5   256     8.8   786.7    0.00 
 119    0:50   0.00   25.5    53    6.4   230     9.2   786.6    0.00 
 119    1:00   0.00   25.9    53    7.7   213    10.7   786.5    0.00 
 119    1:10   0.00   25.9    54    9.2   232    10.7   786.6    0.00 
 119    1:20   0.00   25.4    54    8.8   228    10.6   786.5    0.00 
 119    1:30   0.00   25.6    54    8.0   222    10.2   786.6    0.00 
 119    1:40   0.00   25.6    53    7.2   226    10.5   786.6    0.00 
 119    1:50   0.00   25.3    54    6.5   224     9.3   786.6    0.00 
 119    2:00   0.00   25.9    53    9.2   210    10.7   786.4    0.00 
 119    2:10   0.00   25.2    54    5.7   238     9.5   786.3    0.00 
 119    2:20   0.00   23.7    56    6.0   219     9.4   786.4    0.00 
 119    2:30   0.00   24.3    56    8.2   203    10.3   786.5    0.00 
 119    2:40   0.00   25.0    54    7.3   215     9.0   786.4    0.00 
 119    2:50   0.00   24.3    55    6.1   253     7.8   786.5    0.00 
 119    3:00   0.00   24.0    55    4.7   260     8.4   786.5    0.00 
 119    3:10   0.00   23.8    54    6.9   236     9.4   786.4    0.00 
 119    3:20   0.00   24.1    54    5.7   257     8.0   786.3    0.00 
 119    3:30   0.00   25.2    51    5.0   277     7.7   786.3    0.00 
 119    3:40   0.00   24.7    52    5.1   242     7.9   786.3    0.00 
 119    3:50   0.00   23.6    54    4.5   253     7.0   786.3    0.00 
 119    4:00   0.00   22.2    56    2.3   245     5.5   786.5    0.00 
 119    4:10   0.00   22.0    57    2.5   244     4.4   786.6    0.00 
 119    4:20   0.00   21.3    57    3.3   231     6.3   786.7    0.00 
 119    4:30   0.00   19.6    63    3.5   240     9.5   786.7    0.00 
 119    4:40   0.00   22.4    55    2.4   259     7.5   786.8    0.00 
 119    4:50   0.00   19.8    64    1.5   208     4.6   786.9    0.00 
 119    5:00   0.00   20.0    60    3.8   240     7.7   787.0    0.00 
 119    5:10   0.00   21.2    57    2.1   289     4.7   787.0    0.00 
 119    5:20   0.01   21.3    59    3.3   329     7.5   787.0    0.00 
 119    5:30   0.05   22.5    58    4.2   313     6.9   787.1    0.00 
 119    5:40   0.07   24.4    55    2.1   314     5.5   787.2    0.00 
 119    5:50   0.11   25.6    54    5.3   344     9.2   787.4    0.00 
 119    6:00   0.15   26.0    54    3.4   322     7.7   787.4    0.00 
 119    6:10   0.18   31.0    41    7.1   262    11.2   787.5    0.00 
 119    6:20   0.22   33.4    38    7.4   268    12.6   787.6    0.00 
 119    6:30   0.25   34.1    38    9.2   268    13.2   787.8    0.00 
 119    6:40   0.29   34.7    38    7.6   277    12.6   788.0    0.00 
 119    6:50   0.33   35.7    35    7.2   290    11.9   788.1    0.00 
 119    7:00   0.37   36.0    31    9.2   293    14.7   788.2    0.00 
 119    7:10   0.41   36.8    31    7.3   281    11.2   788.2    0.00 
 119    7:20   0.44   37.9    29    8.0   287    12.5   788.1    0.00 
 119    7:30   0.48   38.5    29    7.0   276    13.2   788.2    0.00 
 119    7:40   0.52   39.8    26    6.7   290    10.8   788.2    0.00 
 119    7:50   0.55   40.5    25    6.4   284    11.8   788.3    0.00 
 119    8:00   0.58   40.5    24    6.2   302    11.4   788.2    0.00 
 119    8:10   0.62   41.8    22    5.0   292    10.4   788.2    0.00 
 119    8:20   0.61   42.7    20    5.3   313    10.8   788.2    0.00 
 119    8:30   0.68   43.6    20    5.0   299     9.0   788.2    0.00 
 119    8:40   0.71   43.8    18    4.4   308     8.0   788.2    0.00 
 119    8:50   0.74   44.3    18    5.3   314     9.9   788.3    0.00 
 119    9:00   0.77   44.3    18    4.3   325     9.6   788.3    0.00 
 119    9:10   0.80   45.9    17    3.0   145     7.2   788.2    0.00 
 119    9:20   0.83   47.2    16    2.7   193     6.6   788.1    0.00 
 119    9:30   0.85   48.3    16    3.3   304     8.6   788.1    0.00 
 119    9:40   0.88   48.4    15    3.4   358     8.6   788.1    0.00 
 119    9:50   0.90   48.6    14    3.6    24     7.0   788.1    0.00 
 119   10:00   0.92   48.8    13    3.6    35     7.2   788.1    0.00 
 119   10:10   0.94   50.3    12    3.9    59     6.3   788.0    0.00 
 119   10:20   0.95   50.8    10    2.6    27     5.4   788.0    0.00 
 119   10:30   0.96   51.3    13    3.4   106     9.1   787.9    0.00 
 119   10:40   0.98   51.4    15    4.8    60     9.6   787.8    0.00 
 119   10:50   0.99   51.0    14    3.5    37     7.8   787.8    0.00 
 119   11:00   1.00   51.7    12    3.7    27     7.3   787.7    0.00 
 119   11:10   1.01   52.6    12    4.1    76     8.6   787.7    0.00 
 119   11:20   1.01   52.8    14    4.9    40    10.5   787.6    0.00 
 119   11:30   1.02   54.2    13    3.7   125     9.3   787.5    0.00 
 119   11:40   1.02   54.6    12    2.8    41     7.5   787.4    0.00 
 119   11:50   1.02   56.6    12    3.9    59    10.3   787.4    0.00 
 119   12:00   1.02   55.5    13    7.4    97    14.0   787.4    0.00 
 119   12:10   1.02   55.8    12    4.9    62    11.0   787.4    0.00 
 119   12:20   1.02   55.3    12    4.3    53    11.0   787.2    0.00 
 119   12:30   1.01   56.5    12    4.3    86    10.0   787.1    0.00 
 119   12:40   1.01   57.2    12    5.5    72    11.5   787.0    0.00 
 119   12:50   1.00   57.0    12    7.2   108    15.0   787.0    0.00 
 119   13:00   0.99   57.9    11    6.0   122    11.0   787.0    0.00 
 119   13:10   0.97   58.0    11    6.6    65    12.2   787.0    0.00 
 119   13:20   0.96   58.1    11    4.7    64     9.6   787.0    0.00 
 119   13:30   0.94   58.5    11    4.6    28     9.3   787.0    0.00 
 119   13:40   0.93   59.1    11    5.9    85    15.9   786.9    0.00 
 119   13:50   0.91   59.1    11    5.7    99    14.7   787.0    0.00 
 119   14:00   0.89   59.1    11    4.3   118    11.1   787.0    0.00 
 119   14:10   0.86   60.0    11    5.5   141    10.7   786.9    0.00 
 119   14:20   0.84   59.1    11    5.6    91    16.6   786.8    0.00 
 119   14:30   0.82   59.9    11    6.5    82    12.8   786.7    0.00 
 119   14:40   0.79   59.4    11    4.1   336     8.6   786.6    0.00 
 119   14:50   0.76   61.1    11    5.1    22    11.9   786.5    0.00 
 119   15:00   0.73   60.9    11    5.3    61    11.8   786.4    0.00 
 119   15:10   0.70   60.5    11    5.2    95    11.2   786.3    0.00 
 119   15:20   0.67   60.3    11    4.4    69    12.3   786.2    0.00 
 119   15:30   0.64   60.4    12    3.6    21     7.7   786.2    0.00 
 119   15:40   0.61   60.6    11    6.0     4    17.8   786.2    0.00 
 119   15:50   0.57   61.3    10    5.4   332    11.2   786.3    0.00 
 119   16:00   0.54   61.2    10    6.8   297    11.5   786.3    0.00 
 119   16:10   0.50   60.8    10    6.7   288    11.5   786.4    0.00 
 119   16:20   0.47   60.1    10    4.3   316    10.4   786.4    0.00 
 119   16:30   0.43   60.3    11    6.3   345    10.8   786.4    0.00 
 119   16:40   0.39   60.0    11    7.9   322    16.9   786.4    0.00 
 119   16:50   0.35   59.8    12    6.6   314    12.8   786.4    0.00 
 119   17:00   0.32   59.7    11    7.3   301    12.5   786.3    0.00 
 119   17:10   0.28   59.6    12    6.6   300    11.8   786.3    0.00 
 119   17:20   0.24   59.6    12    5.7   305    10.6   786.4    0.00 
 119   17:30   0.21   59.7    12    5.8   296    12.1   786.4    0.00 
 119   17:40   0.17   59.2    12    6.2   292    12.1   786.4    0.00 
 119   17:50   0.14   58.5    12    5.9   292    12.3   786.4    0.00 
 119   18:00   0.11   58.0    12    5.2   288     8.8   786.4    0.00 
 119   18:10   0.07   57.3    13    4.9   280     8.2   786.5    0.00 
 119   18:20   0.05   56.0    14    5.3   278     9.1   786.6    0.00 
 119   18:30   0.01   53.2    15    6.1   264     8.7   786.7    0.00 
 119   18:40   0.00   49.8    18    7.7   250    11.0   786.7    0.00 
 119   18:50   0.00   47.9    20    8.4   235    10.7   786.8    0.00 
 119   19:00   0.00   46.6    21    7.9   214    11.5   786.9    0.00 
 119   19:10   0.00   46.4    23    8.8   208    12.2   787.0    0.00 
 119   19:20   0.00   46.0    22    6.5   227     9.1   787.1    0.00 

Return to SNARL Reserve graphs page.


Western Regional Climate Center,wrcc@dri.edu